sensor_id;sensor_type;location;lat;lon;timestamp;pressure;altitude;pressure_sealevel;temperature;humidity
78990;BME280;68390;52.130;21.218;2023-04-01T00:00:52;98643.44;;;8.89;86.29
78990;BME280;68390;52.130;21.218;2023-04-01T00:03:18;98640.06;;;8.87;87.10
78990;BME280;68390;52.130;21.218;2023-04-01T00:05:44;98640.69;;;8.89;87.21
78990;BME280;68390;52.130;21.218;2023-04-01T00:08:10;98633.53;;;8.88;86.80
78990;BME280;68390;52.130;21.218;2023-04-01T00:10:36;98633.34;;;8.89;86.97
78990;BME280;68390;52.130;21.218;2023-04-01T00:13:02;98624.47;;;8.87;87.73
78990;BME280;68390;52.130;21.218;2023-04-01T00:15:28;98626.56;;;8.85;87.02
78990;BME280;68390;52.130;21.218;2023-04-01T00:17:53;98615.81;;;8.83;86.88
78990;BME280;68390;52.130;21.218;2023-04-01T00:20:19;98615.63;;;8.85;86.77
78990;BME280;68390;52.130;21.218;2023-04-01T00:22:45;98614.13;;;8.82;86.48
78990;BME280;68390;52.130;21.218;2023-04-01T00:25:10;98611.81;;;8.79;86.00
78990;BME280;68390;52.130;21.218;2023-04-01T00:27:36;98611.16;;;8.77;86.15
78990;BME280;68390;52.130;21.218;2023-04-01T00:30:03;98611.75;;;8.73;86.00
78990;BME280;68390;52.130;21.218;2023-04-01T00:32:28;98618.44;;;8.64;85.50
78990;BME280;68390;52.130;21.218;2023-04-01T00:34:54;98619.06;;;8.59;85.52
78990;BME280;68390;52.130;21.218;2023-04-01T00:37:20;98615.22;;;8.54;86.83
78990;BME280;68390;52.130;21.218;2023-04-01T00:39:46;98608.28;;;8.51;86.48
78990;BME280;68390;52.130;21.218;2023-04-01T00:42:12;98607.66;;;8.49;87.42
78990;BME280;68390;52.130;21.218;2023-04-01T00:44:39;98607.66;;;8.49;87.12
78990;BME280;68390;52.130;21.218;2023-04-01T00:47:05;98603.22;;;8.48;87.08
78990;BME280;68390;52.130;21.218;2023-04-01T00:49:39;98605.75;;;8.50;87.04
78990;BME280;68390;52.130;21.218;2023-04-01T00:52:07;98606.59;;;8.50;87.11
78990;BME280;68390;52.130;21.218;2023-04-01T00:54:34;98611.22;;;8.50;87.31
78990;BME280;68390;52.130;21.218;2023-04-01T00:57:05;98609.53;;;8.49;87.98
78990;BME280;68390;52.130;21.218;2023-04-01T00:59:35;98608.69;;;8.48;88.17
78990;BME280;68390;52.130;21.218;2023-04-01T01:02:05;98607.84;;;8.48;88.13
78990;BME280;68390;52.130;21.218;2023-04-01T01:04:34;98615.00;;;8.49;87.80
78990;BME280;68390;52.130;21.218;2023-04-01T01:17:38;98623.16;;;8.42;87.07
78990;BME280;68390;52.130;21.218;2023-04-01T01:38:00;98620.88;;;7.96;86.20
78990;BME280;68390;52.130;21.218;2023-04-01T01:40:29;98617.03;;;7.91;86.56
78990;BME280;68390;52.130;21.218;2023-04-01T01:43:00;98606.72;;;7.86;85.88
78990;BME280;68390;52.130;21.218;2023-04-01T01:45:32;98610.22;;;7.80;86.33
78990;BME280;68390;52.130;21.218;2023-04-01T01:48:00;98607.44;;;7.73;85.90
78990;BME280;68390;52.130;21.218;2023-04-01T01:50:27;98602.56;;;7.69;86.02
78990;BME280;68390;52.130;21.218;2023-04-01T01:53:01;98605.22;;;7.62;86.35
78990;BME280;68390;52.130;21.218;2023-04-01T01:55:34;98607.50;;;7.59;86.54
78990;BME280;68390;52.130;21.218;2023-04-01T01:58:07;98609.59;;;7.57;86.61
78990;BME280;68390;52.130;21.218;2023-04-01T02:00:35;98605.19;;;7.56;86.51
78990;BME280;68390;52.130;21.218;2023-04-01T02:03:01;98602.44;;;7.56;87.13
78990;BME280;68390;52.130;21.218;2023-04-01T02:05:28;98598.69;;;7.57;87.31
78990;BME280;68390;52.130;21.218;2023-04-01T02:08:01;98592.81;;;7.60;87.26
78990;BME280;68390;52.130;21.218;2023-04-01T02:10:30;98594.13;;;7.64;87.75
78990;BME280;68390;52.130;21.218;2023-04-01T02:13:00;98583.84;;;7.66;87.35
78990;BME280;68390;52.130;21.218;2023-04-01T02:15:31;98580.06;;;7.67;88.15
78990;BME280;68390;52.130;21.218;2023-04-01T02:18:00;98581.75;;;7.68;87.06
78990;BME280;68390;52.130;21.218;2023-04-01T02:20:27;98574.38;;;7.68;87.49
78990;BME280;68390;52.130;21.218;2023-04-01T02:22:56;98577.34;;;7.67;87.66
78990;BME280;68390;52.130;21.218;2023-04-01T02:25:30;98574.16;;;7.63;87.13
78990;BME280;68390;52.130;21.218;2023-04-01T02:27:59;98568.22;;;7.60;87.78
78990;BME280;68390;52.130;21.218;2023-04-01T02:30:27;98573.69;;;7.60;86.82
78990;BME280;68390;52.130;21.218;2023-04-01T02:32:55;98570.94;;;7.60;86.54
78990;BME280;68390;52.130;21.218;2023-04-01T02:35:22;98563.78;;;7.59;87.43
78990;BME280;68390;52.130;21.218;2023-04-01T02:37:49;98565.47;;;7.60;86.98
78990;BME280;68390;52.130;21.218;2023-04-01T02:40:16;98568.88;;;7.62;87.30
78990;BME280;68390;52.130;21.218;2023-04-01T02:42:42;98575.00;;;7.64;88.16
78990;BME280;68390;52.130;21.218;2023-04-01T02:45:08;98582.81;;;7.67;87.84
78990;BME280;68390;52.130;21.218;2023-04-01T02:47:33;98582.56;;;7.68;87.73
78990;BME280;68390;52.130;21.218;2023-04-01T02:49:59;98584.09;;;7.71;88.78
78990;BME280;68390;52.130;21.218;2023-04-01T02:52:25;98575.69;;;7.72;89.05
78990;BME280;68390;52.130;21.218;2023-04-01T02:54:51;98576.16;;;7.76;88.34
78990;BME280;68390;52.130;21.218;2023-04-01T02:57:16;98575.97;;;7.78;88.59
78990;BME280;68390;52.130;21.218;2023-04-01T02:59:42;98575.13;;;7.77;88.29
78990;BME280;68390;52.130;21.218;2023-04-01T03:02:08;98572.97;;;7.72;87.82
78990;BME280;68390;52.130;21.218;2023-04-01T03:04:33;98581.09;;;7.66;87.43
78990;BME280;68390;52.130;21.218;2023-04-01T03:06:59;98575.38;;;7.61;87.01
78990;BME280;68390;52.130;21.218;2023-04-01T03:09:24;98580.78;;;7.54;86.52
78990;BME280;68390;52.130;21.218;2023-04-01T03:11:49;98588.91;;;7.48;86.03
78990;BME280;68390;52.130;21.218;2023-04-01T03:14:15;98587.16;;;7.40;86.11
78990;BME280;68390;52.130;21.218;2023-04-01T03:16:40;98602.63;;;7.33;86.85
78990;BME280;68390;52.130;21.218;2023-04-01T03:19:05;98597.72;;;7.28;86.59
78990;BME280;68390;52.130;21.218;2023-04-01T03:21:31;98597.47;;;7.23;87.17
78990;BME280;68390;52.130;21.218;2023-04-01T03:23:56;98602.28;;;7.21;87.55
78990;BME280;68390;52.130;21.218;2023-04-01T03:26:22;98605.84;;;7.22;88.27
78990;BME280;68390;52.130;21.218;2023-04-01T03:28:48;98612.16;;;7.22;88.40
78990;BME280;68390;52.130;21.218;2023-04-01T03:31:13;98604.44;;;7.26;88.15
78990;BME280;68390;52.130;21.218;2023-04-01T03:33:41;98610.53;;;7.28;87.95
78990;BME280;68390;52.130;21.218;2023-04-01T03:36:07;98620.88;;;7.32;88.34
78990;BME280;68390;52.130;21.218;2023-04-01T03:38:35;98610.63;;;7.34;89.11
78990;BME280;68390;52.130;21.218;2023-04-01T03:41:01;98617.38;;;7.38;88.38
78990;BME280;68390;52.130;21.218;2023-04-01T03:43:26;98621.41;;;7.43;88.60
78990;BME280;68390;52.130;21.218;2023-04-01T03:45:52;98627.53;;;7.45;88.93
78990;BME280;68390;52.130;21.218;2023-04-01T03:48:19;98622.75;;;7.47;88.40
78990;BME280;68390;52.130;21.218;2023-04-01T03:50:45;98619.78;;;7.48;88.70
78990;BME280;68390;52.130;21.218;2023-04-01T03:53:10;98627.13;;;7.48;88.53
78990;BME280;68390;52.130;21.218;2023-04-01T03:55:36;98634.28;;;7.49;88.44
78990;BME280;68390;52.130;21.218;2023-04-01T03:58:05;98629.22;;;7.46;88.06
78990;BME280;68390;52.130;21.218;2023-04-01T04:00:31;98635.72;;;7.45;87.30
78990;BME280;68390;52.130;21.218;2023-04-01T04:02:57;98634.22;;;7.42;87.02
78990;BME280;68390;52.130;21.218;2023-04-01T04:05:24;98632.06;;;7.37;87.78
78990;BME280;68390;52.130;21.218;2023-04-01T04:07:50;98633.50;;;7.33;86.97
78990;BME280;68390;52.130;21.218;2023-04-01T04:10:16;98640.19;;;7.31;87.04
78990;BME280;68390;52.130;21.218;2023-04-01T04:12:41;98638.88;;;7.27;87.24
78990;BME280;68390;52.130;21.218;2023-04-01T04:15:07;98641.16;;;7.23;87.21
78990;BME280;68390;52.130;21.218;2023-04-01T04:17:33;98646.63;;;7.23;87.36
78990;BME280;68390;52.130;21.218;2023-04-01T04:19:58;98643.22;;;7.21;87.38
78990;BME280;68390;52.130;21.218;2023-04-01T04:22:23;98652.28;;;7.22;87.26
78990;BME280;68390;52.130;21.218;2023-04-01T04:24:49;98648.50;;;7.23;87.91
78990;BME280;68390;52.130;21.218;2023-04-01T04:27:15;98656.69;;;7.23;87.61
78990;BME280;68390;52.130;21.218;2023-04-01T04:29:40;98651.03;;;7.24;88.18
78990;BME280;68390;52.130;21.218;2023-04-01T04:32:06;98657.97;;;7.27;88.07
78990;BME280;68390;52.130;21.218;2023-04-01T04:34:32;98654.03;;;7.29;88.13
78990;BME280;68390;52.130;21.218;2023-04-01T04:36:58;98655.53;;;7.32;88.33
78990;BME280;68390;52.130;21.218;2023-04-01T04:39:23;98654.31;;;7.34;88.22
78990;BME280;68390;52.130;21.218;2023-04-01T04:41:48;98657.72;;;7.36;88.66
78990;BME280;68390;52.130;21.218;2023-04-01T04:44:14;98663.41;;;7.42;88.85
78990;BME280;68390;52.130;21.218;2023-04-01T04:46:39;98666.81;;;7.44;88.43
78990;BME280;68390;52.130;21.218;2023-04-01T04:49:06;98668.94;;;7.48;88.79
78990;BME280;68390;52.130;21.218;2023-04-01T04:51:31;98663.75;;;7.53;88.89
78990;BME280;68390;52.130;21.218;2023-04-01T04:53:59;98662.53;;;7.56;88.90
78990;BME280;68390;52.130;21.218;2023-04-01T04:56:25;98661.09;;;7.60;89.10
78990;BME280;68390;52.130;21.218;2023-04-01T04:58:51;98667.50;;;7.67;88.98
78990;BME280;68390;52.130;21.218;2023-04-01T05:01:17;98672.16;;;7.73;88.43
78990;BME280;68390;52.130;21.218;2023-04-01T05:03:43;98676.41;;;7.76;88.78
78990;BME280;68390;52.130;21.218;2023-04-01T05:06:12;98668.25;;;7.82;89.22
78990;BME280;68390;52.130;21.218;2023-04-01T05:08:38;98664.75;;;7.88;88.57
78990;BME280;68390;52.130;21.218;2023-04-01T05:11:07;98663.97;;;7.94;88.77
78990;BME280;68390;52.130;21.218;2023-04-01T05:13:34;98668.63;;;8.00;88.61
78990;BME280;68390;52.130;21.218;2023-04-01T05:16:00;98663.81;;;8.02;88.63
78990;BME280;68390;52.130;21.218;2023-04-01T05:18:25;98677.56;;;8.09;88.48
78990;BME280;68390;52.130;21.218;2023-04-01T05:20:52;98672.81;;;8.18;88.71
78990;BME280;68390;52.130;21.218;2023-04-01T05:23:19;98671.81;;;8.25;88.15
78990;BME280;68390;52.130;21.218;2023-04-01T05:25:46;98670.16;;;8.31;87.81
78990;BME280;68390;52.130;21.218;2023-04-01T05:28:12;98674.03;;;8.36;87.69
78990;BME280;68390;52.130;21.218;2023-04-01T05:30:42;98674.28;;;8.41;88.11
78990;BME280;68390;52.130;21.218;2023-04-01T05:33:09;98683.19;;;8.50;87.84
78990;BME280;68390;52.130;21.218;2023-04-01T05:35:35;98671.44;;;8.56;88.33
78990;BME280;68390;52.130;21.218;2023-04-01T05:38:01;98674.00;;;8.64;88.30
78990;BME280;68390;52.130;21.218;2023-04-01T05:40:27;98676.81;;;8.71;88.39
78990;BME280;68390;52.130;21.218;2023-04-01T05:42:52;98676.19;;;8.75;87.74
78990;BME280;68390;52.130;21.218;2023-04-01T05:45:18;98676.25;;;8.82;87.11
78990;BME280;68390;52.130;21.218;2023-04-01T05:47:44;98677.13;;;8.89;87.70
78990;BME280;68390;52.130;21.218;2023-04-01T05:50:09;98680.53;;;8.98;87.28
78990;BME280;68390;52.130;21.218;2023-04-01T05:52:36;98681.41;;;9.05;87.63
78990;BME280;68390;52.130;21.218;2023-04-01T05:55:02;98678.53;;;9.13;86.97
78990;BME280;68390;52.130;21.218;2023-04-01T05:57:28;98681.50;;;9.18;86.76
78990;BME280;68390;52.130;21.218;2023-04-01T05:59:53;98688.69;;;9.26;86.76
78990;BME280;68390;52.130;21.218;2023-04-01T06:02:18;98683.66;;;9.29;86.36
78990;BME280;68390;52.130;21.218;2023-04-01T06:04:44;98692.72;;;9.36;86.85
78990;BME280;68390;52.130;21.218;2023-04-01T06:07:12;98691.28;;;9.40;86.23
78990;BME280;68390;52.130;21.218;2023-04-01T06:09:38;98691.72;;;9.44;86.50
78990;BME280;68390;52.130;21.218;2023-04-01T06:12:25;98685.81;;;9.47;85.44
78990;BME280;68390;52.130;21.218;2023-04-01T06:15:26;98683.72;;;9.49;86.01
78990;BME280;68390;52.130;21.218;2023-04-01T06:18:10;98687.50;;;9.48;85.53
78990;BME280;68390;52.130;21.218;2023-04-01T06:20:46;98686.66;;;9.47;85.24
78990;BME280;68390;52.130;21.218;2023-04-01T06:28:56;98691.53;;;9.52;84.81
78990;BME280;68390;52.130;21.218;2023-04-01T06:37:10;98686.72;;;9.61;84.77
78990;BME280;68390;52.130;21.218;2023-04-01T06:40:53;98682.53;;;9.65;84.74
78990;BME280;68390;52.130;21.218;2023-04-01T06:48:38;98690.09;;;9.63;84.13
78990;BME280;68390;52.130;21.218;2023-04-01T06:53:40;98688.81;;;9.58;84.43
78990;BME280;68390;52.130;21.218;2023-04-01T06:56:10;98687.13;;;9.57;84.19
78990;BME280;68390;52.130;21.218;2023-04-01T07:01:22;98688.41;;;9.55;84.14
78990;BME280;68390;52.130;21.218;2023-04-01T07:03:53;98690.28;;;9.54;84.15
78990;BME280;68390;52.130;21.218;2023-04-01T07:08:57;98690.69;;;9.51;83.89
78990;BME280;68390;52.130;21.218;2023-04-01T07:11:34;98693.84;;;9.48;84.70
78990;BME280;68390;52.130;21.218;2023-04-01T07:19:31;98696.16;;;9.51;84.83
78990;BME280;68390;52.130;21.218;2023-04-01T07:24:37;98691.34;;;9.60;84.84
78990;BME280;68390;52.130;21.218;2023-04-01T07:27:08;98693.06;;;9.68;84.89
78990;BME280;68390;52.130;21.218;2023-04-01T07:29:34;98694.13;;;9.73;84.90
78990;BME280;68390;52.130;21.218;2023-04-01T07:32:12;98697.94;;;9.79;84.33
78990;BME280;68390;52.130;21.218;2023-04-01T07:45:31;98693.78;;;10.09;83.62
78990;BME280;68390;52.130;21.218;2023-04-01T07:48:31;98697.16;;;10.11;83.58
78990;BME280;68390;52.130;21.218;2023-04-01T07:51:15;98687.47;;;10.15;83.48
78990;BME280;68390;52.130;21.218;2023-04-01T07:54:06;98691.91;;;10.16;82.69
78990;BME280;68390;52.130;21.218;2023-04-01T07:56:51;98696.97;;;10.19;81.34
78990;BME280;68390;52.130;21.218;2023-04-01T08:13:51;98705.44;;;10.31;81.50
78990;BME280;68390;52.130;21.218;2023-04-01T08:16:57;98709.03;;;10.32;80.68
78990;BME280;68390;52.130;21.218;2023-04-01T08:22:32;98712.63;;;10.25;81.43
78990;BME280;68390;52.130;21.218;2023-04-01T08:25:03;98709.88;;;10.25;80.47
78990;BME280;68390;52.130;21.218;2023-04-01T08:27:40;98721.91;;;10.24;80.65
78990;BME280;68390;52.130;21.218;2023-04-01T08:32:53;98719.34;;;10.29;81.32
78990;BME280;68390;52.130;21.218;2023-04-01T08:35:46;98726.13;;;10.34;81.73
78990;BME280;68390;52.130;21.218;2023-04-01T08:38:21;98724.03;;;10.36;81.71
78990;BME280;68390;52.130;21.218;2023-04-01T08:48:40;98727.38;;;10.51;81.75
78990;BME280;68390;52.130;21.218;2023-04-01T08:51:58;98722.53;;;10.53;80.75
78990;BME280;68390;52.130;21.218;2023-04-01T08:56:41;98734.56;;;10.39;80.04
78990;BME280;68390;52.130;21.218;2023-04-01T09:07:33;98737.72;;;10.42;80.93
78990;BME280;68390;52.130;21.218;2023-04-01T09:10:19;98731.63;;;10.47;81.08
78990;BME280;68390;52.130;21.218;2023-04-01T09:24:42;98735.81;;;10.49;78.64
78990;BME280;68390;52.130;21.218;2023-04-01T09:27:27;98733.31;;;10.48;79.61
78990;BME280;68390;52.130;21.218;2023-04-01T09:45:58;98739.84;;;10.27;80.87
78990;BME280;68390;52.130;21.218;2023-04-01T09:48:48;98737.47;;;10.17;80.61
78990;BME280;68390;52.130;21.218;2023-04-01T10:05:09;98756.44;;;10.06;81.22
78990;BME280;68390;52.130;21.218;2023-04-01T10:30:23;98776.63;;;9.91;82.10
78990;BME280;68390;52.130;21.218;2023-04-01T10:33:17;98775.81;;;9.98;82.86
78990;BME280;68390;52.130;21.218;2023-04-01T10:36:10;98778.34;;;9.99;82.26
78990;BME280;68390;52.130;21.218;2023-04-01T10:41:50;98778.78;;;10.03;81.35
78990;BME280;68390;52.130;21.218;2023-04-01T10:55:59;98787.22;;;10.01;82.30
78990;BME280;68390;52.130;21.218;2023-04-01T11:01:19;98786.56;;;9.99;82.00
78990;BME280;68390;52.130;21.218;2023-04-01T11:14:59;98783.47;;;10.15;81.58
78990;BME280;68390;52.130;21.218;2023-04-01T11:17:56;98783.31;;;10.23;82.01
78990;BME280;68390;52.130;21.218;2023-04-01T11:23:40;98783.56;;;10.55;81.63
78990;BME280;68390;52.130;21.218;2023-04-01T11:26:14;98781.25;;;10.65;79.84
78990;BME280;68390;52.130;21.218;2023-04-01T11:31:42;98772.16;;;10.78;79.23
78990;BME280;68390;52.130;21.218;2023-04-01T11:47:58;98777.66;;;11.11;78.04
78990;BME280;68390;52.130;21.218;2023-04-01T11:50:50;98779.97;;;11.07;75.75
78990;BME280;68390;52.130;21.218;2023-04-01T11:56:56;98779.97;;;11.07;76.99
78990;BME280;68390;52.130;21.218;2023-04-01T12:02:16;98776.38;;;11.00;77.12
78990;BME280;68390;52.130;21.218;2023-04-01T12:04:54;98782.69;;;11.00;77.89
78990;BME280;68390;52.130;21.218;2023-04-01T12:10:19;98781.88;;;11.07;78.71
78990;BME280;68390;52.130;21.218;2023-04-01T12:12:56;98783.75;;;11.13;78.52
78990;BME280;68390;52.130;21.218;2023-04-01T12:15:35;98782.03;;;11.25;80.14
78990;BME280;68390;52.130;21.218;2023-04-01T12:21:00;98782.13;;;11.69;81.06
78990;BME280;68390;52.130;21.218;2023-04-01T12:23:40;98789.28;;;11.84;79.68
78990;BME280;68390;52.130;21.218;2023-04-01T12:32:03;98792.63;;;11.99;75.61
78990;BME280;68390;52.130;21.218;2023-04-01T12:37:39;98795.16;;;12.00;74.99
78990;BME280;68390;52.130;21.218;2023-04-01T12:42:50;98792.06;;;11.77;72.13
78990;BME280;68390;52.130;21.218;2023-04-01T12:45:36;98797.38;;;11.72;74.41
78990;BME280;68390;52.130;21.218;2023-04-01T12:56:54;98788.94;;;11.54;75.78
78990;BME280;68390;52.130;21.218;2023-04-01T13:02:01;98806.25;;;11.67;75.22
78990;BME280;68390;52.130;21.218;2023-04-01T13:04:51;98803.72;;;11.72;75.77
78990;BME280;68390;52.130;21.218;2023-04-01T13:13:10;98813.38;;;11.95;74.24
78990;BME280;68390;52.130;21.218;2023-04-01T13:29:36;98829.81;;;12.08;71.67
78990;BME280;68390;52.130;21.218;2023-04-01T13:34:51;98823.47;;;12.14;72.33
78990;BME280;68390;52.130;21.218;2023-04-01T13:37:37;98832.34;;;12.09;72.22
78990;BME280;68390;52.130;21.218;2023-04-01T13:40:27;98824.31;;;12.08;72.36
78990;BME280;68390;52.130;21.218;2023-04-01T13:43:08;98826.91;;;12.03;71.67
78990;BME280;68390;52.130;21.218;2023-04-01T13:45:46;98823.09;;;12.04;72.85
78990;BME280;68390;52.130;21.218;2023-04-01T13:48:29;98827.28;;;12.06;71.90
78990;BME280;68390;52.130;21.218;2023-04-01T13:51:15;98833.19;;;12.10;72.94
78990;BME280;68390;52.130;21.218;2023-04-01T13:56:48;98828.50;;;12.24;72.49
78990;BME280;68390;52.130;21.218;2023-04-01T14:04:44;98825.91;;;12.35;71.23
78990;BME280;68390;52.130;21.218;2023-04-01T14:09:57;98836.84;;;12.42;72.41
78990;BME280;68390;52.130;21.218;2023-04-01T14:12:33;98829.88;;;12.39;70.87
78990;BME280;68390;52.130;21.218;2023-04-01T14:18:13;98833.06;;;12.36;71.24
78990;BME280;68390;52.130;21.218;2023-04-01T14:31:21;98851.94;;;11.82;72.02
78990;BME280;68390;52.130;21.218;2023-04-01T14:34:00;98855.94;;;11.66;70.96
78990;BME280;68390;52.130;21.218;2023-04-01T14:37:10;98856.22;;;11.51;72.03
78990;BME280;68390;52.130;21.218;2023-04-01T14:42:41;98874.63;;;11.18;74.06
78990;BME280;68390;52.130;21.218;2023-04-01T14:45:34;98874.63;;;11.04;75.47
78990;BME280;68390;52.130;21.218;2023-04-01T14:51:09;98876.94;;;10.88;77.15
78990;BME280;68390;52.130;21.218;2023-04-01T14:53:39;98882.59;;;10.80;77.06
78990;BME280;68390;52.130;21.218;2023-04-01T14:56:07;98887.25;;;10.73;78.00
78990;BME280;68390;52.130;21.218;2023-04-01T14:58:47;98883.03;;;10.70;79.23
78990;BME280;68390;52.130;21.218;2023-04-01T15:01:38;98886.63;;;10.71;78.98
78990;BME280;68390;52.130;21.218;2023-04-01T15:09:58;98887.91;;;10.68;79.91
78990;BME280;68390;52.130;21.218;2023-04-01T15:18:41;98892.50;;;10.61;80.11
78990;BME280;68390;52.130;21.218;2023-04-01T15:21:16;98901.38;;;10.56;79.17
78990;BME280;68390;52.130;21.218;2023-04-01T15:23:52;98906.88;;;10.56;79.50
78990;BME280;68390;52.130;21.218;2023-04-01T15:26:30;98905.38;;;10.54;79.34
78990;BME280;68390;52.130;21.218;2023-04-01T15:31:43;98926.44;;;10.40;79.18
78990;BME280;68390;52.130;21.218;2023-04-01T15:34:30;98919.88;;;10.35;78.43
78990;BME280;68390;52.130;21.218;2023-04-01T15:47:59;98956.38;;;9.94;79.22
78990;BME280;68390;52.130;21.218;2023-04-01T15:50:44;98948.31;;;9.86;78.92
78990;BME280;68390;52.130;21.218;2023-04-01T15:53:31;98946.34;;;9.80;79.02
78990;BME280;68390;52.130;21.218;2023-04-01T15:58:49;98975.34;;;9.68;80.24
78990;BME280;68390;52.130;21.218;2023-04-01T16:01:33;98967.56;;;9.65;80.14
78990;BME280;68390;52.130;21.218;2023-04-01T16:13:28;98998.50;;;9.37;82.02
78990;BME280;68390;52.130;21.218;2023-04-01T16:15:59;98997.84;;;9.35;82.14
78990;BME280;68390;52.130;21.218;2023-04-01T16:18:54;99004.13;;;9.29;82.43
78990;BME280;68390;52.130;21.218;2023-04-01T16:31:57;99027.00;;;9.00;81.77
78990;BME280;68390;52.130;21.218;2023-04-01T16:34:32;99029.28;;;8.97;81.46
78990;BME280;68390;52.130;21.218;2023-04-01T16:37:11;99037.44;;;8.90;81.62
78990;BME280;68390;52.130;21.218;2023-04-01T16:40:16;99038.84;;;8.86;82.48
78990;BME280;68390;52.130;21.218;2023-04-01T16:42:53;99045.94;;;8.80;81.75
78990;BME280;68390;52.130;21.218;2023-04-01T16:45:37;99045.66;;;8.75;80.22
78990;BME280;68390;52.130;21.218;2023-04-01T16:48:13;99053.13;;;8.67;80.25
78990;BME280;68390;52.130;21.218;2023-04-01T16:50:48;99060.03;;;8.63;80.51
78990;BME280;68390;52.130;21.218;2023-04-01T16:53:17;99063.16;;;8.60;80.51
78990;BME280;68390;52.130;21.218;2023-04-01T16:55:50;99066.44;;;8.55;80.03
78990;BME280;68390;52.130;21.218;2023-04-01T17:01:04;99075.44;;;8.49;80.46
78990;BME280;68390;52.130;21.218;2023-04-01T17:03:38;99078.34;;;8.48;81.20
78990;BME280;68390;52.130;21.218;2023-04-01T17:06:12;99080.41;;;8.45;81.44
78990;BME280;68390;52.130;21.218;2023-04-01T17:12:01;99096.16;;;8.43;81.31
78990;BME280;68390;52.130;21.218;2023-04-01T17:17:28;99104.28;;;8.37;81.32
78990;BME280;68390;52.130;21.218;2023-04-01T17:22:55;99111.47;;;8.38;81.81
78990;BME280;68390;52.130;21.218;2023-04-01T17:25:36;99114.75;;;8.33;81.37
78990;BME280;68390;52.130;21.218;2023-04-01T17:37:05;99136.78;;;8.17;80.44
78990;BME280;68390;52.130;21.218;2023-04-01T17:40:07;99139.69;;;8.16;81.47
78990;BME280;68390;52.130;21.218;2023-04-01T17:42:40;99144.50;;;8.14;81.64
78990;BME280;68390;52.130;21.218;2023-04-01T17:47:39;99152.03;;;8.11;81.94
78990;BME280;68390;52.130;21.218;2023-04-01T17:53:07;99163.53;;;8.07;82.48
78990;BME280;68390;52.130;21.218;2023-04-01T17:55:44;99166.25;;;8.07;82.52
78990;BME280;68390;52.130;21.218;2023-04-01T18:00:53;99177.75;;;8.02;82.62
78990;BME280;68390;52.130;21.218;2023-04-01T18:06:04;99185.28;;;8.00;82.95
78990;BME280;68390;52.130;21.218;2023-04-01T18:22:43;99194.72;;;7.98;82.69
78990;BME280;68390;52.130;21.218;2023-04-01T18:25:14;99196.59;;;7.97;82.07
78990;BME280;68390;52.130;21.218;2023-04-01T18:27:45;99211.47;;;7.95;82.28
78990;BME280;68390;52.130;21.218;2023-04-01T18:30:15;99212.00;;;7.90;81.65
78990;BME280;68390;52.130;21.218;2023-04-01T18:35:33;99217.19;;;7.85;82.17
78990;BME280;68390;52.130;21.218;2023-04-01T18:45:43;99224.59;;;7.77;81.31
78990;BME280;68390;52.130;21.218;2023-04-01T18:48:17;99233.47;;;7.79;81.76
78990;BME280;68390;52.130;21.218;2023-04-01T18:50:53;99237.22;;;7.78;81.67
78990;BME280;68390;52.130;21.218;2023-04-01T18:53:30;99228.00;;;7.79;82.22
78990;BME280;68390;52.130;21.218;2023-04-01T18:59:17;99237.88;;;7.80;81.39
78990;BME280;68390;52.130;21.218;2023-04-01T19:04:35;99240.25;;;7.83;82.46
78990;BME280;68390;52.130;21.218;2023-04-01T19:15:57;99263.31;;;7.80;81.41
78990;BME280;68390;52.130;21.218;2023-04-01T19:21:07;99278.69;;;7.81;81.92
78990;BME280;68390;52.130;21.218;2023-04-01T19:29:42;99279.06;;;7.78;81.20
78990;BME280;68390;52.130;21.218;2023-04-01T19:35:37;99293.38;;;7.80;81.64
78990;BME280;68390;52.130;21.218;2023-04-01T19:42:02;99303.00;;;7.76;81.44
78990;BME280;68390;52.130;21.218;2023-04-01T19:46:53;99301.28;;;7.75;80.76
78990;BME280;68390;52.130;21.218;2023-04-01T19:52:19;99311.53;;;7.73;81.22
78990;BME280;68390;52.130;21.218;2023-04-01T19:54:58;99320.09;;;7.70;80.83
78990;BME280;68390;52.130;21.218;2023-04-01T20:03:01;99333.09;;;7.68;80.79
78990;BME280;68390;52.130;21.218;2023-04-01T20:08:19;99336.19;;;7.65;81.25
78990;BME280;68390;52.130;21.218;2023-04-01T20:13:30;99341.81;;;7.63;80.85
78990;BME280;68390;52.130;21.218;2023-04-01T20:16:03;99344.72;;;7.62;80.57
78990;BME280;68390;52.130;21.218;2023-04-01T20:18:50;99350.53;;;7.59;80.85
78990;BME280;68390;52.130;21.218;2023-04-01T20:26:41;99354.31;;;7.58;80.52
78990;BME280;68390;52.130;21.218;2023-04-01T20:29:15;99362.50;;;7.58;80.90
78990;BME280;68390;52.130;21.218;2023-04-01T20:33:10;99363.34;;;7.58;80.49
78990;BME280;68390;52.130;21.218;2023-04-01T20:35:30;99371.53;;;7.58;80.68
78990;BME280;68390;52.130;21.218;2023-04-01T20:38:29;99376.34;;;7.56;80.31
78990;BME280;68390;52.130;21.218;2023-04-01T20:41:24;99373.09;;;7.53;80.42
78990;BME280;68390;52.130;21.218;2023-04-01T20:44:14;99379.41;;;7.53;81.38
78990;BME280;68390;52.130;21.218;2023-04-01T20:46:58;99381.97;;;7.55;81.80
78990;BME280;68390;52.130;21.218;2023-04-01T20:49:40;99386.06;;;7.51;81.00
78990;BME280;68390;52.130;21.218;2023-04-01T20:57:32;99387.78;;;7.52;81.30
78990;BME280;68390;52.130;21.218;2023-04-01T21:11:31;99410.69;;;7.43;80.35
78990;BME280;68390;52.130;21.218;2023-04-01T21:14:28;99411.03;;;7.40;80.49
78990;BME280;68390;52.130;21.218;2023-04-01T21:25:05;99428.28;;;7.32;80.25
78990;BME280;68390;52.130;21.218;2023-04-01T21:27:47;99435.97;;;7.28;80.65
78990;BME280;68390;52.130;21.218;2023-04-01T21:33:00;99440.44;;;7.21;79.35
78990;BME280;68390;52.130;21.218;2023-04-01T21:38:54;99446.91;;;7.20;80.40
78990;BME280;68390;52.130;21.218;2023-04-01T22:00:22;99472.69;;;7.10;79.17
78990;BME280;68390;52.130;21.218;2023-04-01T22:03:29;99474.72;;;7.08;79.33
78990;BME280;68390;52.130;21.218;2023-04-01T22:06:05;99475.75;;;7.07;78.87